sensor_id;sensor_type;location;lat;lon;timestamp;P1;durP1;ratioP1;P2;durP2;ratioP2
10661;SDS011;5379;51.034;7.006;2023-06-22T04:32:30;1.63;;;1.60;;
10661;SDS011;5379;51.034;7.006;2023-06-22T04:34:58;1.73;;;1.63;;
10661;SDS011;5379;51.034;7.006;2023-06-22T04:37:25;1.47;;;1.47;;
10661;SDS011;5379;51.034;7.006;2023-06-22T04:39:52;1.20;;;1.20;;
10661;SDS011;5379;51.034;7.006;2023-06-22T04:42:19;1.87;;;1.77;;
10661;SDS011;5379;51.034;7.006;2023-06-22T04:44:46;2.00;;;1.90;;
10661;SDS011;5379;51.034;7.006;2023-06-22T04:47:13;1.43;;;1.33;;
10661;SDS011;5379;51.034;7.006;2023-06-22T04:49:41;1.77;;;1.67;;
10661;SDS011;5379;51.034;7.006;2023-06-22T04:52:09;1.40;;;1.40;;
10661;SDS011;5379;51.034;7.006;2023-06-22T04:54:37;1.83;;;1.77;;
10661;SDS011;5379;51.034;7.006;2023-06-22T04:57:12;1.43;;;1.33;;
10661;SDS011;5379;51.034;7.006;2023-06-22T04:59:40;1.47;;;1.47;;
10661;SDS011;5379;51.034;7.006;2023-06-22T05:02:07;1.33;;;1.33;;
10661;SDS011;5379;51.034;7.006;2023-06-22T05:04:35;1.93;;;1.83;;
10661;SDS011;5379;51.034;7.006;2023-06-22T05:07:05;2.37;;;1.03;;
10661;SDS011;5379;51.034;7.006;2023-06-22T05:09:32;1.73;;;1.70;;
10661;SDS011;5379;51.034;7.006;2023-06-22T05:11:59;1.43;;;1.43;;
10661;SDS011;5379;51.034;7.006;2023-06-22T05:14:27;1.67;;;1.57;;
10661;SDS011;5379;51.034;7.006;2023-06-22T05:16:54;2.00;;;1.90;;
10661;SDS011;5379;51.034;7.006;2023-06-22T05:19:23;1.80;;;1.70;;
10661;SDS011;5379;51.034;7.006;2023-06-22T05:21:50;3.80;;;1.90;;
10661;SDS011;5379;51.034;7.006;2023-06-22T05:24:19;1.77;;;1.67;;
10661;SDS011;5379;51.034;7.006;2023-06-22T05:26:46;1.80;;;1.70;;
10661;SDS011;5379;51.034;7.006;2023-06-22T05:29:12;2.00;;;1.90;;
10661;SDS011;5379;51.034;7.006;2023-06-22T05:31:40;3.30;;;2.60;;
10661;SDS011;5379;51.034;7.006;2023-06-22T05:34:07;1.80;;;1.70;;
10661;SDS011;5379;51.034;7.006;2023-06-22T05:36:33;2.30;;;2.20;;
10661;SDS011;5379;51.034;7.006;2023-06-22T05:39:10;2.27;;;2.17;;
10661;SDS011;5379;51.034;7.006;2023-06-22T05:41:39;2.67;;;2.23;;
10661;SDS011;5379;51.034;7.006;2023-06-22T05:44:05;2.17;;;2.07;;
10661;SDS011;5379;51.034;7.006;2023-06-22T05:46:32;2.10;;;2.00;;
10661;SDS011;5379;51.034;7.006;2023-06-22T05:48:59;1.83;;;1.73;;
10661;SDS011;5379;51.034;7.006;2023-06-22T05:51:26;2.53;;;2.33;;
10661;SDS011;5379;51.034;7.006;2023-06-22T05:53:53;2.53;;;2.20;;
10661;SDS011;5379;51.034;7.006;2023-06-22T05:56:20;1.80;;;1.80;;
10661;SDS011;5379;51.034;7.006;2023-06-22T05:58:48;5.53;;;2.07;;
10661;SDS011;5379;51.034;7.006;2023-06-22T06:01:16;3.47;;;2.23;;
10661;SDS011;5379;51.034;7.006;2023-06-22T06:03:43;2.10;;;2.00;;
10661;SDS011;5379;51.034;7.006;2023-06-22T06:06:10;2.70;;;2.33;;
10661;SDS011;5379;51.034;7.006;2023-06-22T06:08:37;3.33;;;2.10;;
10661;SDS011;5379;51.034;7.006;2023-06-22T06:11:04;2.10;;;2.00;;
10661;SDS011;5379;51.034;7.006;2023-06-22T06:13:31;2.70;;;2.50;;
10661;SDS011;5379;51.034;7.006;2023-06-22T06:15:59;2.23;;;2.13;;
10661;SDS011;5379;51.034;7.006;2023-06-22T06:18:27;2.00;;;1.90;;
10661;SDS011;5379;51.034;7.006;2023-06-22T06:20:53;2.47;;;2.37;;
10661;SDS011;5379;51.034;7.006;2023-06-22T06:23:20;3.63;;;2.20;;
10661;SDS011;5379;51.034;7.006;2023-06-22T06:25:47;2.23;;;2.10;;
10661;SDS011;5379;51.034;7.006;2023-06-22T06:28:14;2.20;;;2.10;;
10661;SDS011;5379;51.034;7.006;2023-06-22T06:30:41;2.57;;;2.47;;
10661;SDS011;5379;51.034;7.006;2023-06-22T06:33:10;4.87;;;2.23;;
10661;SDS011;5379;51.034;7.006;2023-06-22T06:35:37;2.57;;;2.40;;
10661;SDS011;5379;51.034;7.006;2023-06-22T06:38:04;2.13;;;2.03;;
10661;SDS011;5379;51.034;7.006;2023-06-22T06:40:31;4.10;;;2.03;;
10661;SDS011;5379;51.034;7.006;2023-06-22T06:42:58;5.70;;;2.00;;
10661;SDS011;5379;51.034;7.006;2023-06-22T06:45:25;2.73;;;2.57;;
10661;SDS011;5379;51.034;7.006;2023-06-22T06:47:53;2.10;;;2.00;;
10661;SDS011;5379;51.034;7.006;2023-06-22T06:50:22;3.10;;;2.90;;
10661;SDS011;5379;51.034;7.006;2023-06-22T06:52:49;2.43;;;2.33;;
10661;SDS011;5379;51.034;7.006;2023-06-22T06:55:16;2.20;;;2.17;;
10661;SDS011;5379;51.034;7.006;2023-06-22T06:57:44;3.00;;;2.23;;
10661;SDS011;5379;51.034;7.006;2023-06-22T07:00:13;2.17;;;2.07;;
10661;SDS011;5379;51.034;7.006;2023-06-22T07:02:41;2.47;;;2.37;;
10661;SDS011;5379;51.034;7.006;2023-06-22T07:05:09;2.23;;;2.03;;
10661;SDS011;5379;51.034;7.006;2023-06-22T07:07:38;2.93;;;2.73;;
10661;SDS011;5379;51.034;7.006;2023-06-22T07:10:07;2.40;;;2.30;;
10661;SDS011;5379;51.034;7.006;2023-06-22T07:12:34;2.13;;;2.03;;
10661;SDS011;5379;51.034;7.006;2023-06-22T07:15:02;2.43;;;2.33;;
10661;SDS011;5379;51.034;7.006;2023-06-22T07:17:30;2.10;;;2.00;;
10661;SDS011;5379;51.034;7.006;2023-06-22T07:19:57;2.33;;;2.23;;
10661;SDS011;5379;51.034;7.006;2023-06-22T07:22:24;2.33;;;2.23;;
10661;SDS011;5379;51.034;7.006;2023-06-22T07:24:52;2.53;;;2.43;;
10661;SDS011;5379;51.034;7.006;2023-06-22T07:27:19;5.73;;;2.20;;
10661;SDS011;5379;51.034;7.006;2023-06-22T07:29:46;2.90;;;2.70;;
10661;SDS011;5379;51.034;7.006;2023-06-22T07:32:13;3.00;;;2.60;;
10661;SDS011;5379;51.034;7.006;2023-06-22T07:34:40;3.33;;;3.13;;
10661;SDS011;5379;51.034;7.006;2023-06-22T07:37:07;2.37;;;2.27;;
10661;SDS011;5379;51.034;7.006;2023-06-22T07:39:34;3.07;;;2.87;;
10661;SDS011;5379;51.034;7.006;2023-06-22T07:47:48;2.20;;;2.10;;
10661;SDS011;5379;51.034;7.006;2023-06-22T07:50:16;2.13;;;2.03;;
10661;SDS011;5379;51.034;7.006;2023-06-22T07:52:43;2.70;;;2.53;;
10661;SDS011;5379;51.034;7.006;2023-06-22T07:55:10;2.40;;;2.30;;
10661;SDS011;5379;51.034;7.006;2023-06-22T07:57:37;2.50;;;2.40;;
10661;SDS011;5379;51.034;7.006;2023-06-22T08:00:05;2.33;;;2.23;;
10661;SDS011;5379;51.034;7.006;2023-06-22T08:02:39;2.63;;;2.47;;
10661;SDS011;5379;51.034;7.006;2023-06-22T08:05:08;4.17;;;2.53;;
10661;SDS011;5379;51.034;7.006;2023-06-22T08:07:36;2.33;;;2.23;;
10661;SDS011;5379;51.034;7.006;2023-06-22T08:10:04;2.80;;;2.60;;
10661;SDS011;5379;51.034;7.006;2023-06-22T08:12:32;2.13;;;2.03;;
10661;SDS011;5379;51.034;7.006;2023-06-22T08:14:59;3.07;;;2.87;;
10661;SDS011;5379;51.034;7.006;2023-06-22T08:17:26;1.70;;;1.70;;
10661;SDS011;5379;51.034;7.006;2023-06-22T08:19:53;2.40;;;2.30;;
10661;SDS011;5379;51.034;7.006;2023-06-22T08:22:21;2.30;;;2.20;;
10661;SDS011;5379;51.034;7.006;2023-06-22T08:24:48;2.20;;;2.10;;
10661;SDS011;5379;51.034;7.006;2023-06-22T08:27:15;2.47;;;2.37;;
10661;SDS011;5379;51.034;7.006;2023-06-22T08:29:43;2.33;;;2.23;;
10661;SDS011;5379;51.034;7.006;2023-06-22T08:32:11;2.27;;;2.17;;
10661;SDS011;5379;51.034;7.006;2023-06-22T08:34:38;2.00;;;1.90;;
10661;SDS011;5379;51.034;7.006;2023-06-22T08:37:07;2.30;;;2.20;;
10661;SDS011;5379;51.034;7.006;2023-06-22T08:39:35;1.97;;;1.87;;
10661;SDS011;5379;51.034;7.006;2023-06-22T08:42:02;2.20;;;2.10;;
10661;SDS011;5379;51.034;7.006;2023-06-22T08:44:30;2.27;;;2.17;;
10661;SDS011;5379;51.034;7.006;2023-06-22T08:46:57;2.30;;;2.20;;
10661;SDS011;5379;51.034;7.006;2023-06-22T08:49:24;2.40;;;2.30;;
10661;SDS011;5379;51.034;7.006;2023-06-22T08:51:50;2.20;;;2.10;;
10661;SDS011;5379;51.034;7.006;2023-06-22T08:54:19;3.37;;;3.10;;
10661;SDS011;5379;51.034;7.006;2023-06-22T08:56:48;2.73;;;2.53;;
10661;SDS011;5379;51.034;7.006;2023-06-22T08:59:15;1.90;;;1.90;;
10661;SDS011;5379;51.034;7.006;2023-06-22T09:01:42;2.30;;;2.20;;
10661;SDS011;5379;51.034;7.006;2023-06-22T09:04:13;2.77;;;2.60;;
10661;SDS011;5379;51.034;7.006;2023-06-22T09:06:40;2.03;;;1.93;;
10661;SDS011;5379;51.034;7.006;2023-06-22T09:09:10;3.00;;;2.83;;
10661;SDS011;5379;51.034;7.006;2023-06-22T09:11:37;3.50;;;3.20;;
10661;SDS011;5379;51.034;7.006;2023-06-22T09:14:05;2.33;;;2.23;;
10661;SDS011;5379;51.034;7.006;2023-06-22T09:16:33;2.20;;;2.10;;
10661;SDS011;5379;51.034;7.006;2023-06-22T09:19:00;2.10;;;2.00;;
10661;SDS011;5379;51.034;7.006;2023-06-22T09:21:27;2.07;;;1.97;;
10661;SDS011;5379;51.034;7.006;2023-06-22T09:23:55;2.20;;;2.10;;
10661;SDS011;5379;51.034;7.006;2023-06-22T09:26:22;2.00;;;1.90;;
10661;SDS011;5379;51.034;7.006;2023-06-22T09:28:50;2.13;;;2.03;;
10661;SDS011;5379;51.034;7.006;2023-06-22T09:31:18;2.53;;;2.33;;
10661;SDS011;5379;51.034;7.006;2023-06-22T09:33:51;1.80;;;1.70;;
10661;SDS011;5379;51.034;7.006;2023-06-22T09:36:19;2.93;;;2.13;;
10661;SDS011;5379;51.034;7.006;2023-06-22T09:38:46;2.57;;;2.47;;
10661;SDS011;5379;51.034;7.006;2023-06-22T09:41:13;2.23;;;2.13;;
10661;SDS011;5379;51.034;7.006;2023-06-22T09:43:41;1.97;;;1.97;;
10661;SDS011;5379;51.034;7.006;2023-06-22T09:46:08;2.50;;;2.10;;
10661;SDS011;5379;51.034;7.006;2023-06-22T09:48:36;3.07;;;1.97;;
10661;SDS011;5379;51.034;7.006;2023-06-22T09:51:03;2.53;;;2.43;;
10661;SDS011;5379;51.034;7.006;2023-06-22T09:53:30;2.30;;;2.20;;
10661;SDS011;5379;51.034;7.006;2023-06-22T09:55:59;2.07;;;1.97;;
10661;SDS011;5379;51.034;7.006;2023-06-22T09:58:27;1.57;;;1.57;;
10661;SDS011;5379;51.034;7.006;2023-06-22T10:00:54;1.90;;;1.80;;
10661;SDS011;5379;51.034;7.006;2023-06-22T10:03:21;2.50;;;2.40;;
10661;SDS011;5379;51.034;7.006;2023-06-22T10:05:49;2.30;;;2.20;;
10661;SDS011;5379;51.034;7.006;2023-06-22T10:08:16;1.73;;;1.73;;
10661;SDS011;5379;51.034;7.006;2023-06-22T10:10:43;4.13;;;2.00;;
10661;SDS011;5379;51.034;7.006;2023-06-22T10:13:10;3.00;;;2.23;;
10661;SDS011;5379;51.034;7.006;2023-06-22T10:15:37;1.73;;;1.73;;
10661;SDS011;5379;51.034;7.006;2023-06-22T10:18:04;2.47;;;2.37;;
10661;SDS011;5379;51.034;7.006;2023-06-22T10:20:32;1.53;;;1.53;;
10661;SDS011;5379;51.034;7.006;2023-06-22T10:23:00;3.47;;;2.83;;
10661;SDS011;5379;51.034;7.006;2023-06-22T10:25:28;4.50;;;2.50;;
10661;SDS011;5379;51.034;7.006;2023-06-22T10:27:55;2.17;;;2.07;;
10661;SDS011;5379;51.034;7.006;2023-06-22T10:30:22;2.37;;;2.27;;
10661;SDS011;5379;51.034;7.006;2023-06-22T10:32:49;7.70;;;3.20;;
10661;SDS011;5379;51.034;7.006;2023-06-22T10:35:16;2.27;;;2.17;;
10661;SDS011;5379;51.034;7.006;2023-06-22T10:37:43;2.53;;;2.33;;
10661;SDS011;5379;51.034;7.006;2023-06-22T10:40:13;1.97;;;1.93;;
10661;SDS011;5379;51.034;7.006;2023-06-22T10:42:42;2.53;;;2.43;;
10661;SDS011;5379;51.034;7.006;2023-06-22T10:45:09;2.43;;;2.33;;
10661;SDS011;5379;51.034;7.006;2023-06-22T10:47:36;3.23;;;2.83;;
10661;SDS011;5379;51.034;7.006;2023-06-22T10:50:04;2.13;;;2.03;;
10661;SDS011;5379;51.034;7.006;2023-06-22T10:52:32;4.17;;;2.60;;
10661;SDS011;5379;51.034;7.006;2023-06-22T10:54:59;2.50;;;2.40;;
10661;SDS011;5379;51.034;7.006;2023-06-22T10:57:27;3.20;;;2.90;;
10661;SDS011;5379;51.034;7.006;2023-06-22T10:59:54;2.40;;;2.20;;
10661;SDS011;5379;51.034;7.006;2023-06-22T11:02:21;2.93;;;2.73;;
10661;SDS011;5379;51.034;7.006;2023-06-22T11:04:49;5.07;;;3.70;;
10661;SDS011;5379;51.034;7.006;2023-06-22T11:07:16;4.50;;;4.10;;
10661;SDS011;5379;51.034;7.006;2023-06-22T11:09:43;4.93;;;4.60;;
10661;SDS011;5379;51.034;7.006;2023-06-22T11:12:10;3.37;;;3.07;;
10661;SDS011;5379;51.034;7.006;2023-06-22T11:14:38;3.17;;;2.97;;
10661;SDS011;5379;51.034;7.006;2023-06-22T11:17:05;3.43;;;3.23;;
10661;SDS011;5379;51.034;7.006;2023-06-22T11:19:32;4.20;;;3.57;;
10661;SDS011;5379;51.034;7.006;2023-06-22T11:21:59;4.40;;;4.10;;
10661;SDS011;5379;51.034;7.006;2023-06-22T11:24:26;3.63;;;3.33;;
10661;SDS011;5379;51.034;7.006;2023-06-22T11:26:53;4.27;;;3.97;;
10661;SDS011;5379;51.034;7.006;2023-06-22T11:29:20;3.83;;;3.53;;
10661;SDS011;5379;51.034;7.006;2023-06-22T11:31:49;5.23;;;4.73;;
10661;SDS011;5379;51.034;7.006;2023-06-22T11:34:15;7.20;;;4.33;;
10661;SDS011;5379;51.034;7.006;2023-06-22T11:36:44;7.23;;;4.60;;
10661;SDS011;5379;51.034;7.006;2023-06-22T11:39:12;5.20;;;4.43;;
10661;SDS011;5379;51.034;7.006;2023-06-22T11:41:39;4.77;;;4.43;;
10661;SDS011;5379;51.034;7.006;2023-06-22T11:44:06;4.80;;;4.47;;
10661;SDS011;5379;51.034;7.006;2023-06-22T11:46:33;5.33;;;4.83;;
10661;SDS011;5379;51.034;7.006;2023-06-22T11:49:02;5.33;;;4.60;;
10661;SDS011;5379;51.034;7.006;2023-06-22T11:51:29;6.60;;;5.67;;
10661;SDS011;5379;51.034;7.006;2023-06-22T11:53:56;5.03;;;4.70;;
10661;SDS011;5379;51.034;7.006;2023-06-22T11:56:23;18.07;;;6.23;;
10661;SDS011;5379;51.034;7.006;2023-06-22T11:58:51;7.77;;;4.97;;
10661;SDS011;5379;51.034;7.006;2023-06-22T12:01:19;5.50;;;5.00;;
10661;SDS011;5379;51.034;7.006;2023-06-22T12:03:46;4.53;;;4.23;;
10661;SDS011;5379;51.034;7.006;2023-06-22T12:06:14;4.67;;;4.27;;
10661;SDS011;5379;51.034;7.006;2023-06-22T12:08:41;5.07;;;4.67;;
10661;SDS011;5379;51.034;7.006;2023-06-22T12:11:08;5.27;;;4.87;;
10661;SDS011;5379;51.034;7.006;2023-06-22T12:13:35;5.43;;;5.03;;
10661;SDS011;5379;51.034;7.006;2023-06-22T12:16:02;4.57;;;4.27;;
10661;SDS011;5379;51.034;7.006;2023-06-22T12:18:29;4.30;;;4.00;;
10661;SDS011;5379;51.034;7.006;2023-06-22T12:20:56;4.07;;;3.87;;
10661;SDS011;5379;51.034;7.006;2023-06-22T12:23:24;4.97;;;4.13;;
10661;SDS011;5379;51.034;7.006;2023-06-22T12:25:51;2.80;;;2.67;;
10661;SDS011;5379;51.034;7.006;2023-06-22T12:28:18;3.67;;;3.47;;
10661;SDS011;5379;51.034;7.006;2023-06-22T12:30:45;4.10;;;3.80;;
10661;SDS011;5379;51.034;7.006;2023-06-22T12:33:12;9.43;;;3.47;;
10661;SDS011;5379;51.034;7.006;2023-06-22T12:35:39;3.07;;;2.97;;
10661;SDS011;5379;51.034;7.006;2023-06-22T12:38:06;4.13;;;3.23;;
10661;SDS011;5379;51.034;7.006;2023-06-22T12:40:35;2.90;;;2.80;;
10661;SDS011;5379;51.034;7.006;2023-06-22T12:43:04;3.60;;;3.30;;
10661;SDS011;5379;51.034;7.006;2023-06-22T12:45:32;3.37;;;3.20;;
10661;SDS011;5379;51.034;7.006;2023-06-22T12:48:00;4.60;;;4.13;;
10661;SDS011;5379;51.034;7.006;2023-06-22T12:50:27;4.47;;;3.73;;
10661;SDS011;5379;51.034;7.006;2023-06-22T12:52:54;3.27;;;3.07;;
10661;SDS011;5379;51.034;7.006;2023-06-22T12:55:21;4.37;;;3.27;;
10661;SDS011;5379;51.034;7.006;2023-06-22T12:57:49;3.17;;;2.97;;
10661;SDS011;5379;51.034;7.006;2023-06-22T13:00:16;2.90;;;2.77;;
10661;SDS011;5379;51.034;7.006;2023-06-22T13:02:43;3.20;;;2.90;;
10661;SDS011;5379;51.034;7.006;2023-06-22T13:05:10;3.23;;;2.97;;
10661;SDS011;5379;51.034;7.006;2023-06-22T13:07:37;2.90;;;2.80;;
10661;SDS011;5379;51.034;7.006;2023-06-22T13:10:04;2.27;;;2.17;;
10661;SDS011;5379;51.034;7.006;2023-06-22T13:12:32;2.67;;;2.57;;
10661;SDS011;5379;51.034;7.006;2023-06-22T13:15:00;3.10;;;2.87;;
10661;SDS011;5379;51.034;7.006;2023-06-22T13:17:28;2.23;;;2.13;;
10661;SDS011;5379;51.034;7.006;2023-06-22T13:19:55;2.30;;;2.20;;
10661;SDS011;5379;51.034;7.006;2023-06-22T13:22:26;2.50;;;2.40;;
10661;SDS011;5379;51.034;7.006;2023-06-22T13:24:55;2.20;;;2.10;;
10661;SDS011;5379;51.034;7.006;2023-06-22T13:27:22;2.30;;;1.90;;
10661;SDS011;5379;51.034;7.006;2023-06-22T13:29:49;1.27;;;1.27;;
10661;SDS011;5379;51.034;7.006;2023-06-22T13:32:18;1.97;;;1.87;;
10661;SDS011;5379;51.034;7.006;2023-06-22T13:34:44;1.33;;;1.33;;
10661;SDS011;5379;51.034;7.006;2023-06-22T13:37:11;1.57;;;1.53;;
10661;SDS011;5379;51.034;7.006;2023-06-22T13:39:38;1.07;;;1.07;;
10661;SDS011;5379;51.034;7.006;2023-06-22T13:42:07;1.17;;;1.17;;
10661;SDS011;5379;51.034;7.006;2023-06-22T13:44:34;1.63;;;1.53;;
10661;SDS011;5379;51.034;7.006;2023-06-22T13:47:01;1.50;;;1.50;;
10661;SDS011;5379;51.034;7.006;2023-06-22T13:49:31;1.27;;;1.27;;
10661;SDS011;5379;51.034;7.006;2023-06-22T13:51:58;1.30;;;1.30;;
10661;SDS011;5379;51.034;7.006;2023-06-22T13:54:25;2.13;;;1.97;;
10661;SDS011;5379;51.034;7.006;2023-06-22T13:56:52;2.03;;;1.93;;
10661;SDS011;5379;51.034;7.006;2023-06-22T13:59:19;2.10;;;2.00;;
10661;SDS011;5379;51.034;7.006;2023-06-22T14:01:46;2.17;;;2.07;;
10661;SDS011;5379;51.034;7.006;2023-06-22T14:04:13;8.73;;;3.00;;
10661;SDS011;5379;51.034;7.006;2023-06-22T14:06:42;1.50;;;1.50;;
10661;SDS011;5379;51.034;7.006;2023-06-22T14:09:08;1.70;;;1.60;;
10661;SDS011;5379;51.034;7.006;2023-06-22T14:11:35;2.00;;;1.90;;
10661;SDS011;5379;51.034;7.006;2023-06-22T14:14:02;1.40;;;1.40;;
10661;SDS011;5379;51.034;7.006;2023-06-22T14:16:29;2.23;;;2.13;;
10661;SDS011;5379;51.034;7.006;2023-06-22T14:18:56;1.83;;;1.73;;
10661;SDS011;5379;51.034;7.006;2023-06-22T14:21:23;1.97;;;1.87;;
10661;SDS011;5379;51.034;7.006;2023-06-22T14:23:52;2.73;;;2.53;;
10661;SDS011;5379;51.034;7.006;2023-06-22T14:26:19;1.67;;;1.57;;
10661;SDS011;5379;51.034;7.006;2023-06-22T14:28:46;1.70;;;1.60;;
10661;SDS011;5379;51.034;7.006;2023-06-22T14:31:15;1.40;;;1.40;;
10661;SDS011;5379;51.034;7.006;2023-06-22T14:33:45;1.40;;;1.40;;
10661;SDS011;5379;51.034;7.006;2023-06-22T14:36:13;1.80;;;1.70;;
10661;SDS011;5379;51.034;7.006;2023-06-22T14:38:40;8.80;;;1.70;;
10661;SDS011;5379;51.034;7.006;2023-06-22T14:41:09;1.30;;;1.30;;
10661;SDS011;5379;51.034;7.006;2023-06-22T14:43:36;1.33;;;1.33;;
10661;SDS011;5379;51.034;7.006;2023-06-22T14:46:03;2.13;;;1.57;;
10661;SDS011;5379;51.034;7.006;2023-06-22T14:48:30;1.80;;;1.70;;
10661;SDS011;5379;51.034;7.006;2023-06-22T14:50:56;1.30;;;1.30;;
10661;SDS011;5379;51.034;7.006;2023-06-22T14:53:25;1.40;;;1.40;;
10661;SDS011;5379;51.034;7.006;2023-06-22T14:55:52;2.37;;;1.50;;
10661;SDS011;5379;51.034;7.006;2023-06-22T14:58:21;1.47;;;1.47;;
10661;SDS011;5379;51.034;7.006;2023-06-22T15:00:48;1.60;;;1.60;;
10661;SDS011;5379;51.034;7.006;2023-06-22T15:03:15;2.13;;;2.03;;
10661;SDS011;5379;51.034;7.006;2023-06-22T15:05:46;1.83;;;1.60;;
10661;SDS011;5379;51.034;7.006;2023-06-22T15:08:13;1.73;;;1.63;;
10661;SDS011;5379;51.034;7.006;2023-06-22T15:10:40;5.93;;;2.97;;
10661;SDS011;5379;51.034;7.006;2023-06-22T15:13:07;9.87;;;3.13;;
10661;SDS011;5379;51.034;7.006;2023-06-22T15:15:36;2.70;;;2.50;;
10661;SDS011;5379;51.034;7.006;2023-06-22T15:18:03;10.53;;;4.27;;
10661;SDS011;5379;51.034;7.006;2023-06-22T15:20:30;5.20;;;2.80;;
10661;SDS011;5379;51.034;7.006;2023-06-22T15:22:57;2.60;;;2.40;;
10661;SDS011;5379;51.034;7.006;2023-06-22T15:25:24;3.30;;;3.00;;
10661;SDS011;5379;51.034;7.006;2023-06-22T15:27:51;2.77;;;2.57;;
10661;SDS011;5379;51.034;7.006;2023-06-22T15:30:18;4.03;;;3.60;;
10661;SDS011;5379;51.034;7.006;2023-06-22T15:32:48;4.70;;;3.00;;
10661;SDS011;5379;51.034;7.006;2023-06-22T15:35:15;2.87;;;2.67;;
10661;SDS011;5379;51.034;7.006;2023-06-22T15:37:43;2.43;;;2.30;;
10661;SDS011;5379;51.034;7.006;2023-06-22T15:40:11;2.60;;;2.50;;
10661;SDS011;5379;51.034;7.006;2023-06-22T15:42:38;7.90;;;3.97;;
10661;SDS011;5379;51.034;7.006;2023-06-22T15:45:05;2.73;;;2.50;;
10661;SDS011;5379;51.034;7.006;2023-06-22T15:47:33;3.43;;;3.20;;
10661;SDS011;5379;51.034;7.006;2023-06-22T15:50:01;2.30;;;2.20;;
10661;SDS011;5379;51.034;7.006;2023-06-22T15:52:28;2.20;;;2.10;;
10661;SDS011;5379;51.034;7.006;2023-06-22T15:54:55;2.60;;;2.40;;
10661;SDS011;5379;51.034;7.006;2023-06-22T15:57:25;2.47;;;2.37;;
10661;SDS011;5379;51.034;7.006;2023-06-22T15:59:53;4.20;;;2.70;;
10661;SDS011;5379;51.034;7.006;2023-06-22T16:02:20;2.33;;;2.23;;
10661;SDS011;5379;51.034;7.006;2023-06-22T16:04:47;3.43;;;3.13;;
10661;SDS011;5379;51.034;7.006;2023-06-22T16:07:15;2.40;;;2.30;;
10661;SDS011;5379;51.034;7.006;2023-06-22T16:09:42;3.13;;;2.93;;
10661;SDS011;5379;51.034;7.006;2023-06-22T16:12:09;2.37;;;2.27;;
10661;SDS011;5379;51.034;7.006;2023-06-22T16:14:36;2.50;;;2.40;;
10661;SDS011;5379;51.034;7.006;2023-06-22T16:17:05;2.60;;;2.50;;
10661;SDS011;5379;51.034;7.006;2023-06-22T16:19:32;2.50;;;2.30;;
10661;SDS011;5379;51.034;7.006;2023-06-22T16:21:59;2.93;;;2.73;;
10661;SDS011;5379;51.034;7.006;2023-06-22T16:24:28;2.60;;;2.50;;
10661;SDS011;5379;51.034;7.006;2023-06-22T16:26:55;2.50;;;2.40;;
10661;SDS011;5379;51.034;7.006;2023-06-22T16:29:21;2.67;;;2.47;;
10661;SDS011;5379;51.034;7.006;2023-06-22T16:31:49;2.40;;;2.30;;
10661;SDS011;5379;51.034;7.006;2023-06-22T16:34:16;2.63;;;2.50;;
10661;SDS011;5379;51.034;7.006;2023-06-22T16:36:43;4.53;;;3.20;;
10661;SDS011;5379;51.034;7.006;2023-06-22T16:39:10;2.30;;;2.20;;
10661;SDS011;5379;51.034;7.006;2023-06-22T16:41:38;3.60;;;2.80;;
10661;SDS011;5379;51.034;7.006;2023-06-22T16:44:05;2.80;;;2.70;;
10661;SDS011;5379;51.034;7.006;2023-06-22T16:46:33;3.03;;;2.83;;
10661;SDS011;5379;51.034;7.006;2023-06-22T16:49:00;2.93;;;2.30;;
10661;SDS011;5379;51.034;7.006;2023-06-22T16:51:27;2.60;;;2.50;;
10661;SDS011;5379;51.034;7.006;2023-06-22T16:53:54;3.33;;;3.13;;
10661;SDS011;5379;51.034;7.006;2023-06-22T16:56:25;2.60;;;2.50;;
10661;SDS011;5379;51.034;7.006;2023-06-22T16:58:54;2.70;;;2.60;;
10661;SDS011;5379;51.034;7.006;2023-06-22T17:01:22;3.73;;;2.80;;
10661;SDS011;5379;51.034;7.006;2023-06-22T17:03:53;2.60;;;2.50;;
10661;SDS011;5379;51.034;7.006;2023-06-22T17:06:26;2.70;;;2.60;;
10661;SDS011;5379;51.034;7.006;2023-06-22T17:08:53;1.80;;;1.80;;
10661;SDS011;5379;51.034;7.006;2023-06-22T17:11:22;2.33;;;2.17;;
10661;SDS011;5379;51.034;7.006;2023-06-22T17:13:50;2.70;;;2.50;;
10661;SDS011;5379;51.034;7.006;2023-06-22T17:16:18;2.43;;;2.30;;
10661;SDS011;5379;51.034;7.006;2023-06-22T17:18:46;2.20;;;2.10;;
10661;SDS011;5379;51.034;7.006;2023-06-22T17:21:20;2.87;;;2.67;;
10661;SDS011;5379;51.034;7.006;2023-06-22T17:23:47;2.40;;;2.30;;
10661;SDS011;5379;51.034;7.006;2023-06-22T17:26:15;2.00;;;1.90;;
10661;SDS011;5379;51.034;7.006;2023-06-22T17:28:45;2.37;;;2.20;;
10661;SDS011;5379;51.034;7.006;2023-06-22T17:31:13;2.63;;;1.83;;
10661;SDS011;5379;51.034;7.006;2023-06-22T17:33:41;1.17;;;1.17;;
10661;SDS011;5379;51.034;7.006;2023-06-22T17:36:10;1.10;;;1.10;;
10661;SDS011;5379;51.034;7.006;2023-06-22T17:38:39;1.43;;;1.27;;
10661;SDS011;5379;51.034;7.006;2023-06-22T17:41:06;1.40;;;1.40;;
10661;SDS011;5379;51.034;7.006;2023-06-22T17:43:42;1.50;;;1.50;;
10661;SDS011;5379;51.034;7.006;2023-06-22T17:46:11;2.10;;;2.00;;
10661;SDS011;5379;51.034;7.006;2023-06-22T17:48:43;2.60;;;2.40;;
10661;SDS011;5379;51.034;7.006;2023-06-22T17:51:13;2.00;;;1.90;;
10661;SDS011;5379;51.034;7.006;2023-06-22T17:53:46;2.00;;;1.90;;
10661;SDS011;5379;51.034;7.006;2023-06-22T17:56:15;1.73;;;1.73;;
10661;SDS011;5379;51.034;7.006;2023-06-22T17:58:49;3.43;;;2.60;;
10661;SDS011;5379;51.034;7.006;2023-06-22T18:01:25;1.40;;;1.40;;
10661;SDS011;5379;51.034;7.006;2023-06-22T18:03:56;1.90;;;1.80;;
10661;SDS011;5379;51.034;7.006;2023-06-22T18:06:25;1.97;;;1.80;;
10661;SDS011;5379;51.034;7.006;2023-06-22T18:08:53;2.13;;;1.93;;
10661;SDS011;5379;51.034;7.006;2023-06-22T18:11:27;2.10;;;2.00;;
10661;SDS011;5379;51.034;7.006;2023-06-22T18:13:57;1.50;;;1.50;;
10661;SDS011;5379;51.034;7.006;2023-06-22T18:16:26;1.87;;;1.77;;
10661;SDS011;5379;51.034;7.006;2023-06-22T18:18:54;1.83;;;1.73;;
10661;SDS011;5379;51.034;7.006;2023-06-22T18:21:25;1.80;;;1.70;;
10661;SDS011;5379;51.034;7.006;2023-06-22T18:23:53;2.17;;;2.07;;
10661;SDS011;5379;51.034;7.006;2023-06-22T18:26:20;2.23;;;2.13;;
10661;SDS011;5379;51.034;7.006;2023-06-22T18:28:50;2.60;;;2.40;;
10661;SDS011;5379;51.034;7.006;2023-06-22T18:31:18;2.33;;;2.23;;
10661;SDS011;5379;51.034;7.006;2023-06-22T18:33:46;24.37;;;2.87;;
10661;SDS011;5379;51.034;7.006;2023-06-22T18:36:17;2.43;;;2.33;;
10661;SDS011;5379;51.034;7.006;2023-06-22T18:38:47;2.27;;;2.17;;
10661;SDS011;5379;51.034;7.006;2023-06-22T18:41:23;2.70;;;2.60;;
10661;SDS011;5379;51.034;7.006;2023-06-22T18:43:53;4.10;;;3.80;;
10661;SDS011;5379;51.034;7.006;2023-06-22T18:46:30;5.23;;;4.87;;
10661;SDS011;5379;51.034;7.006;2023-06-22T18:51:54;5.67;;;5.27;;
10661;SDS011;5379;51.034;7.006;2023-06-22T18:54:22;6.30;;;5.90;;
10661;SDS011;5379;51.034;7.006;2023-06-22T18:56:53;6.47;;;5.87;;
10661;SDS011;5379;51.034;7.006;2023-06-22T19:02:14;6.13;;;5.73;;
10661;SDS011;5379;51.034;7.006;2023-06-22T19:04:42;6.40;;;6.00;;
10661;SDS011;5379;51.034;7.006;2023-06-22T19:07:12;6.33;;;5.87;;
10661;SDS011;5379;51.034;7.006;2023-06-22T19:09:39;6.03;;;5.63;;
10661;SDS011;5379;51.034;7.006;2023-06-22T19:12:16;6.80;;;6.27;;
10661;SDS011;5379;51.034;7.006;2023-06-22T19:14:59;6.13;;;5.73;;
10661;SDS011;5379;51.034;7.006;2023-06-22T19:17:36;6.10;;;5.70;;
10661;SDS011;5379;51.034;7.006;2023-06-22T19:20:03;8.30;;;6.43;;
10661;SDS011;5379;51.034;7.006;2023-06-22T19:22:47;5.40;;;4.47;;
10661;SDS011;5379;51.034;7.006;2023-06-22T19:25:21;3.67;;;3.47;;
10661;SDS011;5379;51.034;7.006;2023-06-22T19:27:51;3.23;;;3.03;;
10661;SDS011;5379;51.034;7.006;2023-06-22T19:30:20;2.37;;;2.27;;
10661;SDS011;5379;51.034;7.006;2023-06-22T19:32:49;2.10;;;2.00;;
10661;SDS011;5379;51.034;7.006;2023-06-22T19:35:18;11.53;;;2.77;;
10661;SDS011;5379;51.034;7.006;2023-06-22T19:37:47;1.20;;;1.20;;
10661;SDS011;5379;51.034;7.006;2023-06-22T19:40:16;1.30;;;1.30;;
10661;SDS011;5379;51.034;7.006;2023-06-22T19:42:43;1.00;;;1.00;;
10661;SDS011;5379;51.034;7.006;2023-06-22T19:45:15;0.97;;;0.97;;
10661;SDS011;5379;51.034;7.006;2023-06-22T19:47:43;1.03;;;1.03;;